Hlavní strana
METAR-TAF:

METAR-TAF

Letiště :

Skellefteå, Švédsko

zeměpisná šířka: 64-38N, zeměpisná délka: 021-05E, výška: 49 m

Aktuální stav počasí

Zpráva byla vytvořena před 13 minutami, v 13:20 UTC
Severoseverozápadní vítr 1 kt
Teplota -5°C
Vlhkost vzduchu 93%
Tlak 993 hPa
Viditelnost: 3000 m
Zataženo ve výšce 700 ft
slabé sněžení

METAR: ESNS 291320Z 33001KT 3000 -SN OVC007 M05/M06 Q0993

Čas: 14:33 (13:33 UTC)

Předpověď počasí

Zpráva byla vytvořena před 2 hodinami a 3 minutami, v 11:30 UTC
Předpověď platná od 29 v 12 UTC do 29 v 20 UTC
Západní vítr 5 kt
Viditelnost: 8000 m
Oblačno až skoro zataženo ve výšce 3000 ft
slabé sněžení
Dočasný
od 29 v 12 UTC do 29 v 18 UTC
Viditelnost: 2000 m
Oblačno až skoro zataženo ve výšce 800 ft
sníh

TAF: ESNS 291130Z 2912/2920 27005KT 8000 -SN BKN030 TEMPO 2912/2918 2000 SN BKN008

Stav a předpovědi počasí z více než 4 000 letišť (zprávy METAR a TAF).

Červené a žluté tečky na mapě představují dostupné meteorologické stanice.

Když kurzor umístíte na tečku, zobrazí se název stanice.

Pak kliknutím zobrazíte stav a předpověď počasí.

Chcete-li změnit mapu, kliknutím na zelené tlačítko se znaménkem +mapu přiblížíte, kliknutím na zelené tlačítko se znaménkem – mapu oddálíte a kliknutím na zelené šipky přejdete na sousední mapy.


METAR-TAF: